Home   Weather   USA   Austin   Past weeks
Flag for USA

Past Weather in Austin, Texas, USA — May 2018

Currently: 73 °F. Sunny. (Weather station: Camp Mabry / Austin City, USA). See more current weather

May 2018 Weather in Austin — Graph

°F

High & Low Weather Summary for May 2018

 TemperatureHumidityPressure
High98 °F (May 26, 3:51 pm)94% (May 4, 7:51 pm)30.17 "Hg (May 4, 7:51 pm)
Low59 °F (May 7, 6:51 am)27% (May 6, 2:51 pm)29.66 "Hg (May 29, 6:51 pm)
Average79 °F67%29.93 "Hg
* Reported May 1 12:51 am — May 31 11:51 pm, Austin. Weather by CustomWeather, © 2023

Note: Actual official high and low records may vary slightly from our data, if they occured in-between our weather recording intervals... More about our weather records

Austin Weather History for May 1, 2018

Scroll right to see more
 ConditionsComfort  
Time TempWeatherWind HumidityBarometerVisibility
12:51 am
Tue, May 1
71 °FMostly cloudy.6 mph81%29.96 "Hg10 mi
2:01 am71 °FOvercast.8 mph81%29.97 "Hg10 mi
2:51 am71 °FMostly cloudy.7 mph81%29.93 "Hg10 mi
3:51 am71 °FMostly cloudy.6 mph81%29.92 "Hg10 mi
4:51 am71 °FOvercast.7 mph81%29.90 "Hg10 mi
5:51 am70 °FOvercast.8 mph87%29.90 "Hg10 mi
6:51 am71 °FOvercast.6 mph84%29.91 "Hg10 mi
7:51 am70 °FFog.7 mph90%29.94 "Hg6 mi
8:51 am70 °FFog.7 mph90%29.94 "Hg3 mi
9:51 am72 °FLow clouds.5 mph87%29.96 "Hg8 mi
10:51 am73 °FLow clouds.8 mph84%29.96 "Hg8 mi
11:51 am75 °FOvercast.12 mph79%29.95 "Hg10 mi
12:51 pm76 °FOvercast.3 mph80%29.93 "Hg10 mi
1:12 pm77 °FOvercast.6 mph77%29.96 "Hg10 mi
1:51 pm79 °FCloudy.8 mph72%29.93 "Hg10 mi
3:12 pm81 °FMostly cloudy.7 mph69%29.94 "Hg10 mi
3:20 pm79 °FCloudy.8 mph74%29.94 "Hg10 mi
3:51 pm80 °FCloudy.8 mph71%29.89 "Hg10 mi
4:51 pm79 °FMostly cloudy.9 mph74%29.89 "Hg10 mi
5:51 pm76 °FLight rain. Mostly cloudy.12 mph82%29.90 "Hg10 mi
6:51 pm76 °FOvercast.13 mph82%29.89 "Hg10 mi
7:51 pm76 °FOvercast.9 mph80%29.90 "Hg10 mi
8:00 pm76 °FOvercast.10 mph80%29.93 "Hg10 mi
8:51 pm75 °FOvercast.10 mph82%29.91 "Hg10 mi
9:32 pm75 °FOvercast.6 mph82%29.97 "Hg10 mi
9:51 pm75 °FMostly cloudy.10 mph82%29.93 "Hg10 mi
10:34 pm75 °FOvercast.8 mph82%29.97 "Hg10 mi
10:51 pm75 °FOvercast.9 mph82%29.94 "Hg10 mi
11:41 pm75 °FOvercast.12 mph79%30.00 "Hg10 mi
11:51 pm75 °FOvercast.9 mph79%29.96 "Hg10 mi
Weather by CustomWeather, © 2023

See weather overview